sensor_id;sensor_type;location;lat;lon;timestamp;pressure;altitude;pressure_sealevel;temperature;humidity
55656;BME280;41530;52.382;5.270;2023-04-26T00:00:10;102158.53;;;16.78;43.14
55656;BME280;41530;52.382;5.270;2023-04-26T00:02:37;102152.72;;;16.72;43.08
55656;BME280;41530;52.382;5.270;2023-04-26T00:05:05;102157.69;;;16.77;43.08
55656;BME280;41530;52.382;5.270;2023-04-26T00:07:33;102148.13;;;16.74;43.03
55656;BME280;41530;52.382;5.270;2023-04-26T00:10:00;102149.09;;;16.73;42.77
55656;BME280;41530;52.382;5.270;2023-04-26T00:12:27;102153.66;;;16.71;42.96
55656;BME280;41530;52.382;5.270;2023-04-26T00:14:54;102157.28;;;16.70;43.03
55656;BME280;41530;52.382;5.270;2023-04-26T00:17:22;102159.94;;;16.70;42.94
55656;BME280;41530;52.382;5.270;2023-04-26T00:19:49;102158.34;;;16.68;43.12
55656;BME280;41530;52.382;5.270;2023-04-26T00:22:16;102153.78;;;16.70;43.05
55656;BME280;41530;52.382;5.270;2023-04-26T00:24:42;102159.09;;;16.70;43.14
55656;BME280;41530;52.382;5.270;2023-04-26T00:27:09;102160.16;;;16.67;43.07
55656;BME280;41530;52.382;5.270;2023-04-26T00:29:36;102154.00;;;16.67;43.14
55656;BME280;41530;52.382;5.270;2023-04-26T00:32:03;102154.97;;;16.66;43.02
55656;BME280;41530;52.382;5.270;2023-04-26T00:34:34;102153.16;;;16.66;43.03
55656;BME280;41530;52.382;5.270;2023-04-26T00:37:02;102150.59;;;16.65;42.98
55656;BME280;41530;52.382;5.270;2023-04-26T00:39:29;102143.63;;;16.64;43.24
55656;BME280;41530;52.382;5.270;2023-04-26T00:41:57;102144.59;;;16.63;43.11
55656;BME280;41530;52.382;5.270;2023-04-26T00:44:23;102149.91;;;16.63;43.36
55656;BME280;41530;52.382;5.270;2023-04-26T00:46:51;102147.44;;;16.60;43.12
55656;BME280;41530;52.382;5.270;2023-04-26T00:49:21;102135.31;;;16.56;43.09
55656;BME280;41530;52.382;5.270;2023-04-26T00:51:53;102141.38;;;16.58;43.23
55656;BME280;41530;52.382;5.270;2023-04-26T00:54:20;102141.28;;;16.59;43.38
55656;BME280;41530;52.382;5.270;2023-04-26T00:56:47;102132.66;;;16.56;43.23
55656;BME280;41530;52.382;5.270;2023-04-26T00:59:20;102129.28;;;16.54;43.22
55656;BME280;41530;52.382;5.270;2023-04-26T01:01:46;102132.91;;;16.53;43.50
55656;BME280;41530;52.382;5.270;2023-04-26T01:04:14;102134.47;;;16.55;43.27
55656;BME280;41530;52.382;5.270;2023-04-26T01:06:42;102138.94;;;16.55;43.35
55656;BME280;41530;52.382;5.270;2023-04-26T01:09:08;102134.84;;;16.51;43.38
55656;BME280;41530;52.382;5.270;2023-04-26T01:11:37;102145.31;;;16.52;43.25
55656;BME280;41530;52.382;5.270;2023-04-26T01:14:04;102146.28;;;16.51;43.20
55656;BME280;41530;52.382;5.270;2023-04-26T01:16:31;102143.03;;;16.48;43.59
55656;BME280;41530;52.382;5.270;2023-04-26T01:19:09;102144.72;;;16.49;43.37
55656;BME280;41530;52.382;5.270;2023-04-26T01:21:41;102143.13;;;16.46;43.25
55656;BME280;41530;52.382;5.270;2023-04-26T01:24:12;102147.59;;;16.46;43.44
55656;BME280;41530;52.382;5.270;2023-04-26T01:26:39;102140.47;;;16.46;43.37
55656;BME280;41530;52.382;5.270;2023-04-26T01:29:17;102148.44;;;16.46;43.31
55656;BME280;41530;52.382;5.270;2023-04-26T01:31:45;102145.16;;;16.43;43.55
55656;BME280;41530;52.382;5.270;2023-04-26T01:34:13;102146.97;;;16.42;43.49
55656;BME280;41530;52.382;5.270;2023-04-26T01:36:40;102133.53;;;16.32;43.32
55656;BME280;41530;52.382;5.270;2023-04-26T01:39:06;102152.28;;;16.42;43.43
55656;BME280;41530;52.382;5.270;2023-04-26T01:41:34;102150.59;;;16.41;43.31
55656;BME280;41530;52.382;5.270;2023-04-26T01:44:02;102144.69;;;16.37;43.55
55656;BME280;41530;52.382;5.270;2023-04-26T01:46:28;102146.47;;;16.37;43.43
55656;BME280;41530;52.382;5.270;2023-04-26T01:48:55;102148.16;;;16.38;43.48
55656;BME280;41530;52.382;5.270;2023-04-26T01:51:22;102144.03;;;16.34;43.26
55656;BME280;41530;52.382;5.270;2023-04-26T01:53:49;102141.28;;;16.35;43.56
55656;BME280;41530;52.382;5.270;2023-04-26T01:56:16;102143.09;;;16.35;43.58
55656;BME280;41530;52.382;5.270;2023-04-26T01:58:43;102141.38;;;16.34;43.34
55656;BME280;41530;52.382;5.270;2023-04-26T02:01:10;102128.31;;;16.31;43.51
55656;BME280;41530;52.382;5.270;2023-04-26T02:03:37;102131.94;;;16.30;43.58
55656;BME280;41530;52.382;5.270;2023-04-26T02:06:04;102129.41;;;16.28;43.49
55656;BME280;41530;52.382;5.270;2023-04-26T02:08:30;102141.81;;;16.28;43.52
55656;BME280;41530;52.382;5.270;2023-04-26T02:10:57;102136.28;;;16.31;43.42
55656;BME280;41530;52.382;5.270;2023-04-26T02:13:24;102133.00;;;16.27;43.38
55656;BME280;41530;52.382;5.270;2023-04-26T02:15:51;102142.66;;;16.28;43.49
55656;BME280;41530;52.382;5.270;2023-04-26T02:18:18;102135.16;;;16.22;43.53
55656;BME280;41530;52.382;5.270;2023-04-26T02:20:47;102133.25;;;16.24;43.55
55656;BME280;41530;52.382;5.270;2023-04-26T02:23:14;102140.22;;;16.25;43.51
55656;BME280;41530;52.382;5.270;2023-04-26T02:25:44;102139.38;;;16.25;43.31
55656;BME280;41530;52.382;5.270;2023-04-26T02:28:11;102137.72;;;16.24;43.54
55656;BME280;41530;52.382;5.270;2023-04-26T02:30:37;102131.66;;;16.22;43.44
55656;BME280;41530;52.382;5.270;2023-04-26T02:33:04;102135.16;;;16.22;43.47
55656;BME280;41530;52.382;5.270;2023-04-26T02:35:30;102137.19;;;16.19;43.66
55656;BME280;41530;52.382;5.270;2023-04-26T02:37:57;102148.56;;;16.21;43.60
55656;BME280;41530;52.382;5.270;2023-04-26T02:40:24;102139.09;;;16.17;43.52
55656;BME280;41530;52.382;5.270;2023-04-26T02:42:50;102139.22;;;16.15;43.62
55656;BME280;41530;52.382;5.270;2023-04-26T02:45:17;102138.38;;;16.15;43.69
55656;BME280;41530;52.382;5.270;2023-04-26T02:47:44;102130.50;;;16.13;43.56
55656;BME280;41530;52.382;5.270;2023-04-26T02:50:10;102138.38;;;16.15;43.56
55656;BME280;41530;52.382;5.270;2023-04-26T02:52:37;102139.22;;;16.15;43.53
55656;BME280;41530;52.382;5.270;2023-04-26T02:55:05;102138.47;;;16.13;43.43
55656;BME280;41530;52.382;5.270;2023-04-26T02:57:32;102138.47;;;16.13;43.41
55656;BME280;41530;52.382;5.270;2023-04-26T02:59:58;102134.38;;;16.09;43.44
55656;BME280;41530;52.382;5.270;2023-04-26T03:02:26;102136.06;;;16.10;43.42
55656;BME280;41530;52.382;5.270;2023-04-26T03:04:52;102127.38;;;16.08;43.47
55656;BME280;41530;52.382;5.270;2023-04-26T03:07:19;102135.22;;;16.10;43.48
55656;BME280;41530;52.382;5.270;2023-04-26T03:09:46;102131.81;;;16.08;43.54
55656;BME280;41530;52.382;5.270;2023-04-26T03:12:12;102128.31;;;16.07;43.61
55656;BME280;41530;52.382;5.270;2023-04-26T03:14:39;102129.50;;;16.03;43.50
55656;BME280;41530;52.382;5.270;2023-04-26T03:17:05;102129.50;;;16.03;43.39
55656;BME280;41530;52.382;5.270;2023-04-26T03:19:32;102132.88;;;16.05;43.67
55656;BME280;41530;52.382;5.270;2023-04-26T03:21:59;102127.78;;;16.02;43.49
55656;BME280;41530;52.382;5.270;2023-04-26T03:24:25;102135.75;;;16.02;43.43
55656;BME280;41530;52.382;5.270;2023-04-26T03:26:52;102138.41;;;16.02;43.47
55656;BME280;41530;52.382;5.270;2023-04-26T03:29:18;102140.31;;;16.00;43.71
55656;BME280;41530;52.382;5.270;2023-04-26T03:31:45;102133.44;;;15.97;43.56
55656;BME280;41530;52.382;5.270;2023-04-26T03:34:12;102124.97;;;15.92;43.43
55656;BME280;41530;52.382;5.270;2023-04-26T03:36:38;102112.84;;;15.88;43.27
55656;BME280;41530;52.382;5.270;2023-04-26T03:39:05;102119.53;;;15.94;43.51
55656;BME280;41530;52.382;5.270;2023-04-26T03:41:31;102111.78;;;15.91;43.44
55656;BME280;41530;52.382;5.270;2023-04-26T03:44:02;102117.84;;;15.93;43.46
55656;BME280;41530;52.382;5.270;2023-04-26T03:46:29;102110.19;;;15.88;43.47
55656;BME280;41530;52.382;5.270;2023-04-26T03:48:55;102112.75;;;15.90;43.55
55656;BME280;41530;52.382;5.270;2023-04-26T03:51:22;102109.34;;;15.88;43.44
55656;BME280;41530;52.382;5.270;2023-04-26T03:53:48;102117.31;;;15.88;43.55
55656;BME280;41530;52.382;5.270;2023-04-26T03:56:16;102117.41;;;15.86;43.49
55656;BME280;41530;52.382;5.270;2023-04-26T03:58:43;102112.97;;;15.87;43.56
55656;BME280;41530;52.382;5.270;2023-04-26T04:01:09;102120.19;;;15.85;43.50
55656;BME280;41530;52.382;5.270;2023-04-26T04:03:36;102122.72;;;15.86;43.39
55656;BME280;41530;52.382;5.270;2023-04-26T04:06:06;102115.84;;;15.84;43.38
55656;BME280;41530;52.382;5.270;2023-04-26T04:08:33;102119.38;;;15.84;43.27
55656;BME280;41530;52.382;5.270;2023-04-26T04:11:00;102122.97;;;15.83;43.59
55656;BME280;41530;52.382;5.270;2023-04-26T04:13:26;102123.19;;;15.80;43.48
55656;BME280;41530;52.382;5.270;2023-04-26T04:15:53;102121.28;;;15.82;43.62
55656;BME280;41530;52.382;5.270;2023-04-26T04:18:20;102111.63;;;15.81;43.43
55656;BME280;41530;52.382;5.270;2023-04-26T04:20:46;102110.88;;;15.79;43.50
55656;BME280;41530;52.382;5.270;2023-04-26T04:23:13;102113.63;;;15.78;43.41
55656;BME280;41530;52.382;5.270;2023-04-26T04:25:40;102109.91;;;15.80;43.44
55656;BME280;41530;52.382;5.270;2023-04-26T04:28:07;102125.00;;;15.80;43.40
55656;BME280;41530;52.382;5.270;2023-04-26T04:30:33;102119.88;;;15.77;43.34
55656;BME280;41530;52.382;5.270;2023-04-26T04:33:00;102118.19;;;15.76;43.59
55656;BME280;41530;52.382;5.270;2023-04-26T04:35:30;102124.25;;;15.78;43.48
55656;BME280;41530;52.382;5.270;2023-04-26T04:37:59;102122.53;;;15.77;43.50
55656;BME280;41530;52.382;5.270;2023-04-26T04:40:27;102118.41;;;15.73;43.56
55656;BME280;41530;52.382;5.270;2023-04-26T04:42:53;102127.31;;;15.72;43.59
55656;BME280;41530;52.382;5.270;2023-04-26T04:45:21;102138.69;;;15.74;43.55
55656;BME280;41530;52.382;5.270;2023-04-26T04:47:48;102141.34;;;15.74;43.68
55656;BME280;41530;52.382;5.270;2023-04-26T04:50:14;102146.03;;;15.70;43.71
55656;BME280;41530;52.382;5.270;2023-04-26T04:52:41;102148.53;;;15.72;43.48
55656;BME280;41530;52.382;5.270;2023-04-26T04:55:08;102132.88;;;15.68;43.59
55656;BME280;41530;52.382;5.270;2023-04-26T04:57:35;102139.88;;;15.70;43.66
55656;BME280;41530;52.382;5.270;2023-04-26T05:00:02;102127.03;;;15.63;43.50
55656;BME280;41530;52.382;5.270;2023-04-26T05:02:36;102140.94;;;15.67;43.75
55656;BME280;41530;52.382;5.270;2023-04-26T05:05:03;102139.13;;;15.67;43.84
55656;BME280;41530;52.382;5.270;2023-04-26T05:07:31;102131.16;;;15.67;43.88
55656;BME280;41530;52.382;5.270;2023-04-26T05:09:58;102141.03;;;15.65;43.92
55656;BME280;41530;52.382;5.270;2023-04-26T05:12:25;102142.00;;;15.64;44.09
55656;BME280;41530;52.382;5.270;2023-04-26T05:14:52;102141.13;;;15.64;44.22
55656;BME280;41530;52.382;5.270;2023-04-26T05:17:18;102146.34;;;15.65;44.17
55656;BME280;41530;52.382;5.270;2023-04-26T05:19:45;102147.19;;;15.66;44.33
55656;BME280;41530;52.382;5.270;2023-04-26T05:22:12;102145.59;;;15.63;44.18
55656;BME280;41530;52.382;5.270;2023-04-26T05:24:45;102148.16;;;15.65;44.27
55656;BME280;41530;52.382;5.270;2023-04-26T05:27:12;102147.19;;;15.66;44.48
55656;BME280;41530;52.382;5.270;2023-04-26T05:29:40;102147.19;;;15.66;44.59
55656;BME280;41530;52.382;5.270;2023-04-26T05:32:07;102142.53;;;15.70;44.52
55656;BME280;41530;52.382;5.270;2023-04-26T05:34:34;102148.53;;;15.72;44.38
55656;BME280;41530;52.382;5.270;2023-04-26T05:37:00;102144.72;;;15.76;44.53
55656;BME280;41530;52.382;5.270;2023-04-26T05:39:27;102152.47;;;15.79;44.75
55656;BME280;41530;52.382;5.270;2023-04-26T05:41:54;102145.47;;;15.78;44.57
55656;BME280;41530;52.382;5.270;2023-04-26T05:44:20;102156.84;;;15.80;44.79
55656;BME280;41530;52.382;5.270;2023-04-26T05:46:47;102152.38;;;15.80;45.13
55656;BME280;41530;52.382;5.270;2023-04-26T05:49:14;102159.28;;;15.83;44.91
55656;BME280;41530;52.382;5.270;2023-04-26T05:51:41;102164.69;;;15.81;44.95
55656;BME280;41530;52.382;5.270;2023-04-26T05:54:07;102153.00;;;15.84;44.75
55656;BME280;41530;52.382;5.270;2023-04-26T05:56:34;102153.72;;;15.86;45.12
55656;BME280;41530;52.382;5.270;2023-04-26T05:59:01;102153.41;;;15.90;44.34
55656;BME280;41530;52.382;5.270;2023-04-26T06:01:27;102146.28;;;15.91;44.19
55656;BME280;41530;52.382;5.270;2023-04-26T06:03:54;102152.34;;;15.93;44.04
55656;BME280;41530;52.382;5.270;2023-04-26T06:06:25;102164.22;;;16.00;44.16
55656;BME280;41530;52.382;5.270;2023-04-26T06:08:53;102156.13;;;16.01;44.28
55656;BME280;41530;52.382;5.270;2023-04-26T06:11:21;102156.03;;;16.03;44.88
55656;BME280;41530;52.382;5.270;2023-04-26T06:13:47;102153.38;;;16.03;45.20
55656;BME280;41530;52.382;5.270;2023-04-26T06:16:14;102147.13;;;16.04;45.66
55656;BME280;41530;52.382;5.270;2023-04-26T06:18:42;102160.06;;;16.09;46.13
55656;BME280;41530;52.382;5.270;2023-04-26T06:21:08;102148.50;;;16.10;46.35
55656;BME280;41530;52.382;5.270;2023-04-26T06:23:35;102149.34;;;16.10;46.29
55656;BME280;41530;52.382;5.270;2023-04-26T06:26:02;102152.69;;;16.12;46.65
55656;BME280;41530;52.382;5.270;2023-04-26T06:28:28;102154.50;;;16.12;47.15
55656;BME280;41530;52.382;5.270;2023-04-26T06:30:55;102160.56;;;16.14;47.20
55656;BME280;41530;52.382;5.270;2023-04-26T06:33:21;102167.69;;;16.13;46.58
55656;BME280;41530;52.382;5.270;2023-04-26T06:35:48;102171.06;;;16.15;46.79
55656;BME280;41530;52.382;5.270;2023-04-26T06:38:15;102164.91;;;16.15;47.11
55656;BME280;41530;52.382;5.270;2023-04-26T06:40:41;102167.56;;;16.15;46.35
55656;BME280;41530;52.382;5.270;2023-04-26T06:43:08;102163.47;;;16.11;45.83
55656;BME280;41530;52.382;5.270;2023-04-26T06:45:34;102162.81;;;16.07;44.71
55656;BME280;41530;52.382;5.270;2023-04-26T06:48:01;102174.09;;;16.11;44.65
55656;BME280;41530;52.382;5.270;2023-04-26T06:50:30;102176.84;;;16.09;44.65
55656;BME280;41530;52.382;5.270;2023-04-26T06:52:56;102177.78;;;16.08;44.13
55656;BME280;41530;52.382;5.270;2023-04-26T06:55:23;102178.66;;;16.09;44.68
55656;BME280;41530;52.382;5.270;2023-04-26T06:57:50;102183.31;;;16.05;43.99
55656;BME280;41530;52.382;5.270;2023-04-26T07:00:17;102183.44;;;16.03;44.00
55656;BME280;41530;52.382;5.270;2023-04-26T07:02:44;102184.91;;;16.08;44.14
55656;BME280;41530;52.382;5.270;2023-04-26T07:05:10;102191.28;;;16.05;44.21
55656;BME280;41530;52.382;5.270;2023-04-26T07:07:37;102190.44;;;16.04;44.19
55656;BME280;41530;52.382;5.270;2023-04-26T07:10:05;102189.47;;;16.06;43.77
55656;BME280;41530;52.382;5.270;2023-04-26T07:12:32;102187.03;;;16.02;43.92
55656;BME280;41530;52.382;5.270;2023-04-26T07:14:59;102185.44;;;16.00;43.80
55656;BME280;41530;52.382;5.270;2023-04-26T07:17:26;102185.69;;;15.97;43.70
55656;BME280;41530;52.382;5.270;2023-04-26T07:19:53;102187.25;;;15.99;42.98
55656;BME280;41530;52.382;5.270;2023-04-26T07:22:21;102190.84;;;15.98;42.67
55656;BME280;41530;52.382;5.270;2023-04-26T07:24:48;102181.84;;;16.01;42.84
55656;BME280;41530;52.382;5.270;2023-04-26T07:27:14;102188.00;;;16.01;43.12
55656;BME280;41530;52.382;5.270;2023-04-26T07:29:41;102176.97;;;15.95;43.46
55656;BME280;41530;52.382;5.270;2023-04-26T07:32:08;102186.19;;;16.02;43.95
55656;BME280;41530;52.382;5.270;2023-04-26T07:34:35;102187.78;;;16.04;43.73
55656;BME280;41530;52.382;5.270;2023-04-26T07:37:02;102179.59;;;16.08;43.30
55656;BME280;41530;52.382;5.270;2023-04-26T07:39:29;102190.19;;;16.20;42.76
55656;BME280;41530;52.382;5.270;2023-04-26T07:41:56;102190.47;;;16.28;42.84
55656;BME280;41530;52.382;5.270;2023-04-26T07:44:23;102187.81;;;16.28;42.63
55656;BME280;41530;52.382;5.270;2023-04-26T07:46:49;102186.53;;;16.34;42.55
55656;BME280;41530;52.382;5.270;2023-04-26T07:49:16;102188.34;;;16.33;42.32
55656;BME280;41530;52.382;5.270;2023-04-26T07:51:43;102195.84;;;16.39;42.28
55656;BME280;41530;52.382;5.270;2023-04-26T07:54:10;102189.56;;;16.40;42.46
55656;BME280;41530;52.382;5.270;2023-04-26T07:56:37;102183.66;;;16.37;42.64
55656;BME280;41530;52.382;5.270;2023-04-26T07:59:03;102193.09;;;16.41;42.73
55656;BME280;41530;52.382;5.270;2023-04-26T08:01:30;102203.81;;;16.39;42.43
55656;BME280;41530;52.382;5.270;2023-04-26T08:03:57;102206.59;;;16.38;42.22
55656;BME280;41530;52.382;5.270;2023-04-26T08:06:24;102212.88;;;16.37;42.66
55656;BME280;41530;52.382;5.270;2023-04-26T08:08:51;102211.19;;;16.36;43.40
55656;BME280;41530;52.382;5.270;2023-04-26T08:11:19;102201.50;;;16.35;43.42
55656;BME280;41530;52.382;5.270;2023-04-26T08:13:45;102204.34;;;16.45;42.51
55656;BME280;41530;52.382;5.270;2023-04-26T08:16:12;102207.63;;;16.48;42.33
55656;BME280;41530;52.382;5.270;2023-04-26T08:18:39;102209.22;;;16.51;42.06
55656;BME280;41530;52.382;5.270;2023-04-26T08:21:06;102202.22;;;16.50;41.75
55656;BME280;41530;52.382;5.270;2023-04-26T08:23:34;102209.22;;;16.51;41.74
55656;BME280;41530;52.382;5.270;2023-04-26T08:26:03;102200.41;;;16.50;41.86
55656;BME280;41530;52.382;5.270;2023-04-26T08:28:30;102205.25;;;16.56;41.80
55656;BME280;41530;52.382;5.270;2023-04-26T08:30:57;102194.84;;;16.53;41.48
55656;BME280;41530;52.382;5.270;2023-04-26T08:33:24;102200.69;;;16.58;41.51
55656;BME280;41530;52.382;5.270;2023-04-26T08:35:51;102203.44;;;16.57;41.46
55656;BME280;41530;52.382;5.270;2023-04-26T08:38:17;102198.97;;;16.57;41.26
55656;BME280;41530;52.382;5.270;2023-04-26T08:40:45;102204.41;;;16.56;41.14
55656;BME280;41530;52.382;5.270;2023-04-26T08:43:14;102202.91;;;16.52;40.92
55656;BME280;41530;52.382;5.270;2023-04-26T08:45:44;102194.25;;;16.50;40.58
55656;BME280;41530;52.382;5.270;2023-04-26T08:48:11;102192.72;;;16.58;40.85
55656;BME280;41530;52.382;5.270;2023-04-26T08:50:44;102204.75;;;16.64;40.31
55656;BME280;41530;52.382;5.270;2023-04-26T08:53:14;102201.31;;;16.62;40.38
55656;BME280;41530;52.382;5.270;2023-04-26T08:55:48;102201.41;;;16.60;40.22
55656;BME280;41530;52.382;5.270;2023-04-26T08:58:18;102206.63;;;16.62;39.95
55656;BME280;41530;52.382;5.270;2023-04-26T09:00:45;102206.84;;;16.59;40.14
55656;BME280;41530;52.382;5.270;2023-04-26T09:03:13;102204.41;;;16.56;40.10
55656;BME280;41530;52.382;5.270;2023-04-26T09:05:40;102208.03;;;16.55;40.06
55656;BME280;41530;52.382;5.270;2023-04-26T09:08:15;102199.41;;;16.51;40.12
55656;BME280;41530;52.382;5.270;2023-04-26T09:10:43;102195.94;;;16.51;40.36
55656;BME280;41530;52.382;5.270;2023-04-26T09:13:10;102191.69;;;16.48;40.61
55656;BME280;41530;52.382;5.270;2023-04-26T09:15:37;102201.38;;;16.49;40.11
55656;BME280;41530;52.382;5.270;2023-04-26T09:18:21;102203.16;;;16.49;39.31
55656;BME280;41530;52.382;5.270;2023-04-26T09:21:06;102205.09;;;16.47;39.95
55656;BME280;41530;52.382;5.270;2023-04-26T09:23:33;102203.38;;;16.46;40.06
55656;BME280;41530;52.382;5.270;2023-04-26T09:26:16;102202.53;;;16.45;39.29
55656;BME280;41530;52.382;5.270;2023-04-26T09:28:43;102199.88;;;16.45;39.79
55656;BME280;41530;52.382;5.270;2023-04-26T09:31:44;102205.94;;;16.47;39.19
55656;BME280;41530;52.382;5.270;2023-04-26T09:34:12;102203.28;;;16.47;39.82
55656;BME280;41530;52.382;5.270;2023-04-26T09:36:52;102199.56;;;16.50;38.83
55656;BME280;41530;52.382;5.270;2023-04-26T09:39:30;102204.72;;;16.51;39.08
55656;BME280;41530;52.382;5.270;2023-04-26T09:41:57;102211.75;;;16.52;38.92
55656;BME280;41530;52.382;5.270;2023-04-26T09:44:25;102202.31;;;16.48;39.54
55656;BME280;41530;52.382;5.270;2023-04-26T09:49:26;102210.28;;;16.48;39.86
55656;BME280;41530;52.382;5.270;2023-04-26T09:52:03;102211.53;;;16.55;39.29
55656;BME280;41530;52.382;5.270;2023-04-26T09:54:51;102198.59;;;16.51;39.17
55656;BME280;41530;52.382;5.270;2023-04-26T09:57:19;102202.38;;;16.59;39.92
55656;BME280;41530;52.382;5.270;2023-04-26T09:59:49;102203.22;;;16.60;39.60
55656;BME280;41530;52.382;5.270;2023-04-26T10:02:26;102201.41;;;16.60;39.19
55656;BME280;41530;52.382;5.270;2023-04-26T10:04:55;102208.75;;;16.57;40.05
55656;BME280;41530;52.382;5.270;2023-04-26T10:07:23;102213.34;;;16.55;39.19
55656;BME280;41530;52.382;5.270;2023-04-26T10:09:50;102209.22;;;16.51;39.70
55656;BME280;41530;52.382;5.270;2023-04-26T10:12:18;102212.84;;;16.50;39.57
55656;BME280;41530;52.382;5.270;2023-04-26T10:14:45;102215.72;;;16.47;39.72
55656;BME280;41530;52.382;5.270;2023-04-26T10:17:12;102210.94;;;16.39;39.80
55656;BME280;41530;52.382;5.270;2023-04-26T10:19:42;102219.66;;;16.41;39.53
55656;BME280;41530;52.382;5.270;2023-04-26T10:22:16;102211.88;;;16.38;39.96
55656;BME280;41530;52.382;5.270;2023-04-26T10:24:43;102217.44;;;16.35;41.23
55656;BME280;41530;52.382;5.270;2023-04-26T10:27:10;102224.56;;;16.34;41.04
55656;BME280;41530;52.382;5.270;2023-04-26T10:32:22;102218.63;;;16.31;40.66
55656;BME280;41530;52.382;5.270;2023-04-26T10:35:09;102216.81;;;16.31;41.03
55656;BME280;41530;52.382;5.270;2023-04-26T10:40:27;102222.13;;;16.31;41.30
55656;BME280;41530;52.382;5.270;2023-04-26T10:45:43;102208.22;;;16.28;40.76
55656;BME280;41530;52.382;5.270;2023-04-26T10:48:14;102211.59;;;16.30;40.31
55656;BME280;41530;52.382;5.270;2023-04-26T10:53:30;102207.38;;;16.27;40.42
55656;BME280;41530;52.382;5.270;2023-04-26T10:55:58;102204.81;;;16.26;40.23
55656;BME280;41530;52.382;5.270;2023-04-26T10:58:31;102199.41;;;16.27;39.83
55656;BME280;41530;52.382;5.270;2023-04-26T11:01:15;102206.31;;;16.30;39.55
55656;BME280;41530;52.382;5.270;2023-04-26T11:06:24;102204.28;;;16.33;40.25
55656;BME280;41530;52.382;5.270;2023-04-26T11:08:52;102204.06;;;16.36;39.97
55656;BME280;41530;52.382;5.270;2023-04-26T11:11:24;102205.75;;;16.37;39.78
55656;BME280;41530;52.382;5.270;2023-04-26T11:13:51;102190.66;;;16.38;40.26
55656;BME280;41530;52.382;5.270;2023-04-26T11:16:18;102187.88;;;16.39;40.41
55656;BME280;41530;52.382;5.270;2023-04-26T11:18:46;102179.59;;;16.44;40.71
55656;BME280;41530;52.382;5.270;2023-04-26T11:21:13;102183.00;;;16.46;40.98
55656;BME280;41530;52.382;5.270;2023-04-26T11:23:52;102181.81;;;16.50;40.74
55656;BME280;41530;52.382;5.270;2023-04-26T11:26:19;102181.66;;;16.52;41.24
55656;BME280;41530;52.382;5.270;2023-04-26T11:28:47;102167.69;;;16.50;41.63
55656;BME280;41530;52.382;5.270;2023-04-26T11:31:14;102174.44;;;16.54;42.58
55656;BME280;41530;52.382;5.270;2023-04-26T11:33:43;102171.03;;;16.52;41.77
55656;BME280;41530;52.382;5.270;2023-04-26T11:36:10;102164.88;;;16.51;41.15
55656;BME280;41530;52.382;5.270;2023-04-26T11:38:37;102163.22;;;16.50;41.25
55656;BME280;41530;52.382;5.270;2023-04-26T11:41:03;102164.66;;;16.54;41.04
55656;BME280;41530;52.382;5.270;2023-04-26T11:43:37;102160.66;;;16.49;39.93
55656;BME280;41530;52.382;5.270;2023-04-26T11:46:06;102163.06;;;16.52;40.07
55656;BME280;41530;52.382;5.270;2023-04-26T11:48:35;102165.13;;;16.48;40.35
55656;BME280;41530;52.382;5.270;2023-04-26T11:51:04;102161.72;;;16.46;39.68
55656;BME280;41530;52.382;5.270;2023-04-26T11:53:39;102174.06;;;16.47;39.75
55656;BME280;41530;52.382;5.270;2023-04-26T11:56:17;102177.56;;;16.48;39.96
55656;BME280;41530;52.382;5.270;2023-04-26T11:58:51;102190.00;;;16.47;38.88
55656;BME280;41530;52.382;5.270;2023-04-26T12:01:28;102184.16;;;16.42;39.86
55656;BME280;41530;52.382;5.270;2023-04-26T12:03:57;102185.22;;;16.39;39.91
55656;BME280;41530;52.382;5.270;2023-04-26T12:06:39;102180.66;;;16.42;39.71
55656;BME280;41530;52.382;5.270;2023-04-26T12:09:07;102184.28;;;16.40;40.26
55656;BME280;41530;52.382;5.270;2023-04-26T12:11:39;102193.94;;;16.42;40.25
55656;BME280;41530;52.382;5.270;2023-04-26T12:14:06;102189.56;;;16.40;40.31
55656;BME280;41530;52.382;5.270;2023-04-26T12:16:36;102188.63;;;16.42;39.88
55656;BME280;41530;52.382;5.270;2023-04-26T12:19:04;102190.53;;;16.39;40.24
55656;BME280;41530;52.382;5.270;2023-04-26T12:21:42;102194.78;;;16.42;40.25
55656;BME280;41530;52.382;5.270;2023-04-26T12:24:28;102191.38;;;16.40;39.73
55656;BME280;41530;52.382;5.270;2023-04-26T12:26:55;102198.41;;;16.41;40.68
55656;BME280;41530;52.382;5.270;2023-04-26T12:29:22;102195.63;;;16.43;40.41
55656;BME280;41530;52.382;5.270;2023-04-26T12:31:49;102193.09;;;16.41;40.74
55656;BME280;41530;52.382;5.270;2023-04-26T12:34:15;102188.84;;;16.38;40.37
55656;BME280;41530;52.382;5.270;2023-04-26T12:36:42;102193.94;;;16.42;40.26
55656;BME280;41530;52.382;5.270;2023-04-26T12:39:12;102198.41;;;16.41;39.85
55656;BME280;41530;52.382;5.270;2023-04-26T12:41:42;102200.09;;;16.42;40.07
55656;BME280;41530;52.382;5.270;2023-04-26T12:44:09;102191.28;;;16.42;40.55
55656;BME280;41530;52.382;5.270;2023-04-26T12:46:36;102192.13;;;16.42;40.50
55656;BME280;41530;52.382;5.270;2023-04-26T12:49:03;102198.19;;;16.44;40.25
55656;BME280;41530;52.382;5.270;2023-04-26T12:51:30;102190.22;;;16.44;40.54
55656;BME280;41530;52.382;5.270;2023-04-26T12:53:57;102193.59;;;16.46;41.15
55656;BME280;41530;52.382;5.270;2023-04-26T12:56:23;102208.13;;;16.53;42.06
55656;BME280;41530;52.382;5.270;2023-04-26T12:58:50;102203.56;;;16.55;41.38
55656;BME280;41530;52.382;5.270;2023-04-26T13:01:17;102191.34;;;16.53;41.22
55656;BME280;41530;52.382;5.270;2023-04-26T13:03:44;102193.66;;;16.57;41.31
55656;BME280;41530;52.382;5.270;2023-04-26T13:06:11;102194.63;;;16.56;41.38
55656;BME280;41530;52.382;5.270;2023-04-26T13:08:38;102184.75;;;16.58;41.25
55656;BME280;41530;52.382;5.270;2023-04-26T13:11:04;102186.66;;;16.56;41.00